Time;durP1;ratioP1;P1;durP2;ratioP2;P2;SDS_P1;SDS_P2;PMS_P1;PMS_P2;Temp;Humidity;BMP_temperature;BMP_pressure;BME280_temperature;BME280_humidity;BME280_pressure;Samples;Min_cycle;Max_cycle;Signal;HPM_P1;HPM_P2
2022/07/24 00:00:48;;;;;;;9.23;7.40;;;21.30;99.90;;;;;;5051391;28;20582;-70
2022/07/24 00:03:14;;;;;;;9.35;7.07;;;21.30;99.90;;;;;;5050355;28;20174;-70
2022/07/24 00:05:39;;;;;;;10.88;7.85;;;21.30;99.90;;;;;;5051494;28;20191;-68
2022/07/24 00:08:05;;;;;;;11.90;7.18;;;21.30;99.90;;;;;;5049232;28;20312;-70
2022/07/24 00:10:31;;;;;;;8.65;7.15;;;21.20;99.90;;;;;;5051409;28;20240;-69
2022/07/24 00:12:56;;;;;;;9.80;7.50;;;21.20;99.90;;;;;;5051505;28;20177;-72
2022/07/24 00:15:22;;;;;;;9.70;6.88;;;21.20;99.90;;;;;;5051542;28;20186;-71
2022/07/24 00:17:48;;;;;;;8.43;6.80;;;21.20;99.90;;;;;;5051546;28;20169;-71
2022/07/24 00:20:14;;;;;;;8.35;6.88;;;21.10;99.90;;;;;;5051392;28;20177;-72
2022/07/24 00:22:39;;;;;;;8.50;7.20;;;21.10;99.90;;;;;;5051344;28;20232;-70
2022/07/24 00:25:05;;;;;;;9.23;6.80;;;21.00;99.90;;;;;;5050192;28;20264;-70
2022/07/24 00:27:31;;;;;;;8.85;7.40;;;20.90;99.90;;;;;;5051393;28;20188;-70
2022/07/24 00:29:56;;;;;;;12.90;7.60;;;20.80;99.90;;;;;;5051421;28;20652;-70
2022/07/24 00:32:22;;;;;;;9.18;6.95;;;20.80;99.90;;;;;;5051293;28;20192;-70
2022/07/24 00:34:47;;;;;;;9.73;7.05;;;20.80;99.90;;;;;;5051516;28;20180;-70
2022/07/24 00:37:13;;;;;;;12.10;7.30;;;20.80;99.90;;;;;;5051396;28;20695;-68
2022/07/24 00:39:39;;;;;;;8.65;7.00;;;20.80;99.90;;;;;;5051422;28;20169;-70
2022/07/24 00:42:04;;;;;;;10.73;7.22;;;20.80;99.90;;;;;;5051340;28;20181;-70
2022/07/24 00:44:30;;;;;;;10.80;6.75;;;20.80;99.90;;;;;;5051376;28;20239;-70
2022/07/24 00:46:55;;;;;;;8.23;6.82;;;20.80;99.90;;;;;;5045395;28;20204;-71
2022/07/24 00:49:21;;;;;;;8.40;7.07;;;20.80;99.90;;;;;;5031304;28;20183;-70
2022/07/24 00:51:50;;;;;;;8.18;6.55;;;20.70;99.90;;;;;;5040811;28;20244;-70
2022/07/24 00:54:17;;;;;;;9.35;6.60;;;20.70;99.90;;;;;;5049837;28;20186;-70
2022/07/24 00:56:46;;;;;;;8.65;6.63;;;20.70;99.90;;;;;;5051377;28;20186;-70
2022/07/24 00:59:11;;;;;;;11.98;7.10;;;20.70;99.90;;;;;;5051147;28;20185;-70
2022/07/24 01:01:37;;;;;;;11.00;7.32;;;20.70;99.90;;;;;;5051192;28;20169;-71
2022/07/24 01:04:03;;;;;;;8.95;7.18;;;20.70;99.90;;;;;;5050964;28;20181;-69
2022/07/24 01:06:29;;;;;;;10.30;7.03;;;20.70;99.90;;;;;;5051034;28;20640;-70
2022/07/24 01:08:55;;;;;;;7.50;6.38;;;20.70;99.90;;;;;;5051169;28;20189;-71
2022/07/24 01:11:21;;;;;;;8.98;7.20;;;20.70;99.90;;;;;;5050886;28;20217;-70
2022/07/24 01:13:48;;;;;;;8.88;7.38;;;20.70;99.90;;;;;;5051178;28;20170;-71
2022/07/24 01:16:15;;;;;;;11.15;7.35;;;20.70;99.90;;;;;;5050997;28;20177;-69
2022/07/24 01:18:40;;;;;;;9.23;7.40;;;20.70;99.90;;;;;;5052344;28;20181;-69
2022/07/24 01:21:06;;;;;;;9.18;7.20;;;20.70;99.90;;;;;;5054418;28;20172;-68
2022/07/24 01:23:33;;;;;;;8.60;7.25;;;20.60;99.90;;;;;;5054670;28;20182;-69
2022/07/24 01:25:58;;;;;;;9.75;7.22;;;20.50;99.90;;;;;;5054591;28;20188;-69
2022/07/24 01:28:24;;;;;;;11.90;7.65;;;20.50;99.90;;;;;;5054419;28;20181;-69
2022/07/24 01:30:50;;;;;;;9.90;7.38;;;20.50;99.90;;;;;;5054426;28;20292;-68
2022/07/24 01:33:15;;;;;;;9.80;7.20;;;20.50;99.90;;;;;;5054211;28;20683;-70
2022/07/24 01:35:42;;;;;;;10.40;7.60;;;20.50;99.90;;;;;;5054226;28;20331;-71
2022/07/24 01:38:09;;;;;;;9.23;7.22;;;20.40;99.90;;;;;;5054255;28;20323;-71
2022/07/24 01:40:34;;;;;;;8.90;7.05;;;20.40;99.90;;;;;;5054359;28;20204;-71
2022/07/24 01:43:00;;;;;;;9.05;7.40;;;20.40;99.90;;;;;;5054204;28;20267;-71
2022/07/24 01:45:26;;;;;;;8.68;7.40;;;20.40;99.90;;;;;;5054025;28;20169;-71
2022/07/24 01:47:51;;;;;;;9.35;7.10;;;20.40;99.90;;;;;;5054216;28;20319;-70
2022/07/24 01:50:17;;;;;;;11.55;7.40;;;20.40;99.90;;;;;;5053767;28;20594;-71
2022/07/24 01:52:43;;;;;;;9.60;6.88;;;20.40;99.90;;;;;;5053935;28;20185;-70
2022/07/24 01:55:09;;;;;;;13.07;7.10;;;20.30;99.90;;;;;;5053880;28;20644;-70
2022/07/24 01:57:35;;;;;;;7.13;6.43;;;20.30;99.90;;;;;;5053981;28;20231;-69
2022/07/24 02:00:01;;;;;;;10.00;7.68;;;20.20;99.90;;;;;;5053852;28;20178;-67
2022/07/24 02:02:27;;;;;;;9.18;7.43;;;20.20;99.90;;;;;;5053730;28;20664;-68
2022/07/24 02:04:53;;;;;;;8.48;7.35;;;20.10;99.90;;;;;;5053745;28;20188;-68
2022/07/24 02:07:19;;;;;;;10.32;7.32;;;20.00;99.90;;;;;;5053522;28;20184;-68
2022/07/24 02:09:45;;;;;;;9.45;7.78;;;20.00;99.90;;;;;;5053659;28;20244;-68
2022/07/24 02:12:11;;;;;;;10.15;7.43;;;20.00;99.90;;;;;;5053647;28;20178;-68
2022/07/24 02:14:36;;;;;;;9.95;8.07;;;19.90;99.90;;;;;;5052266;28;20574;-68
2022/07/24 02:17:02;;;;;;;10.18;7.55;;;19.80;99.90;;;;;;5053377;28;20174;-69
2022/07/24 02:19:28;;;;;;;9.73;7.18;;;19.80;99.90;;;;;;5053506;28;20182;-71
2022/07/24 02:21:54;;;;;;;8.05;7.07;;;19.80;99.90;;;;;;5053264;28;20697;-69
2022/07/24 02:24:19;;;;;;;9.60;7.07;;;19.80;99.90;;;;;;5053137;28;20509;-71
2022/07/24 02:26:45;;;;;;;10.02;7.28;;;19.80;99.90;;;;;;5052231;28;20231;-71
2022/07/24 02:29:11;;;;;;;9.35;7.10;;;19.80;99.90;;;;;;5052834;28;20178;-71
2022/07/24 02:31:36;;;;;;;9.35;7.45;;;19.70;99.90;;;;;;5051038;28;20221;-68
2022/07/24 02:34:02;;;;;;;11.13;7.35;;;19.70;99.90;;;;;;5053040;28;20207;-68
2022/07/24 02:36:28;;;;;;;10.25;7.65;;;19.70;99.90;;;;;;5051997;28;20182;-71
2022/07/24 02:38:53;;;;;;;9.25;7.30;;;19.70;99.90;;;;;;5053147;28;20624;-68
2022/07/24 02:41:19;;;;;;;9.18;7.40;;;19.70;99.90;;;;;;5052697;28;20174;-70
2022/07/24 02:43:44;;;;;;;12.25;7.75;;;19.70;99.90;;;;;;5053136;28;20178;-70
2022/07/24 02:46:10;;;;;;;9.15;6.72;;;19.70;99.90;;;;;;5053021;28;20186;-71
2022/07/24 02:48:36;;;;;;;8.98;6.78;;;19.70;99.90;;;;;;5052853;28;20212;-70
2022/07/24 02:51:02;;;;;;;12.23;7.57;;;19.70;99.90;;;;;;5052805;28;20209;-67
2022/07/24 02:53:27;;;;;;;10.75;7.55;;;19.70;99.90;;;;;;5052707;28;20231;-70
2022/07/24 02:55:53;;;;;;;9.70;7.35;;;19.70;99.90;;;;;;5052446;28;20177;-70
2022/07/24 02:58:18;;;;;;;10.52;7.68;;;19.60;99.90;;;;;;5052628;28;20252;-70
2022/07/24 03:00:44;;;;;;;9.45;7.43;;;19.60;99.90;;;;;;5052654;28;20169;-70
2022/07/24 03:03:10;;;;;;;10.95;8.35;;;19.60;99.90;;;;;;5051385;28;20204;-70
2022/07/24 03:05:35;;;;;;;11.60;7.85;;;19.60;99.90;;;;;;5052453;28;20181;-71
2022/07/24 03:08:01;;;;;;;15.27;8.75;;;19.50;99.90;;;;;;5052716;28;20780;-69
2022/07/24 03:10:26;;;;;;;8.52;7.47;;;19.60;99.90;;;;;;5052453;28;20199;-71
2022/07/24 03:12:52;;;;;;;11.30;7.70;;;19.50;99.90;;;;;;5052513;28;20189;-71
2022/07/24 03:15:17;;;;;;;10.25;7.47;;;19.50;99.90;;;;;;5052172;28;20173;-70
2022/07/24 03:17:55;;;;;;;10.68;7.53;;;19.50;99.90;;;;;;5052454;28;20268;-70
2022/07/24 03:20:22;;;;;;;9.27;7.63;;;19.50;99.90;;;;;;5052242;28;20312;-70
2022/07/24 03:22:49;;;;;;;8.70;7.43;;;19.50;99.90;;;;;;5052110;28;20229;-70
2022/07/24 03:25:14;;;;;;;12.23;8.35;;;19.50;99.90;;;;;;5052046;28;20173;-70
2022/07/24 03:27:41;;;;;;;8.80;7.10;;;19.50;99.90;;;;;;5052068;28;20592;-70
2022/07/24 03:30:07;;;;;;;8.45;7.00;;;19.40;99.90;;;;;;5051942;28;20209;-70
2022/07/24 03:32:33;;;;;;;9.80;7.35;;;19.40;99.90;;;;;;5051869;28;20656;-70
2022/07/24 03:34:58;;;;;;;12.23;7.50;;;19.40;99.90;;;;;;5051867;28;20208;-70
2022/07/24 03:37:24;;;;;;;8.85;7.30;;;19.30;99.90;;;;;;5051780;28;20177;-70
2022/07/24 03:39:49;;;;;;;10.68;7.43;;;19.20;99.90;;;;;;5051942;28;20173;-70
2022/07/24 03:42:15;;;;;;;10.07;7.53;;;19.20;99.90;;;;;;5051446;28;20186;-70
2022/07/24 03:44:41;;;;;;;8.68;7.30;;;19.20;99.90;;;;;;5051835;28;20640;-69
2022/07/24 03:47:06;;;;;;;9.88;7.53;;;19.10;99.90;;;;;;5051767;28;20272;-69
2022/07/24 03:49:32;;;;;;;9.30;7.80;;;19.10;99.90;;;;;;5051622;28;20582;-70
2022/07/24 03:51:58;;;;;;;9.48;7.95;;;19.10;99.90;;;;;;5051482;28;20209;-70
2022/07/24 03:54:23;;;;;;;9.57;6.55;;;19.10;99.90;;;;;;5051674;28;20232;-70
2022/07/24 03:56:50;;;;;;;9.27;7.18;;;19.10;99.90;;;;;;5051725;28;20198;-71
2022/07/24 03:59:16;;;;;;;9.32;7.70;;;19.00;99.90;;;;;;5051291;28;20189;-70
2022/07/24 04:01:41;;;;;;;8.57;7.13;;;19.00;99.90;;;;;;5051599;28;20193;-70
2022/07/24 04:04:07;;;;;;;8.98;7.22;;;19.00;99.90;;;;;;5051517;28;20212;-70
2022/07/24 04:06:34;;;;;;;11.95;7.82;;;19.00;99.90;;;;;;5051668;28;20169;-70
2022/07/24 04:09:00;;;;;;;11.23;7.43;;;19.00;99.90;;;;;;5050296;28;20235;-70
2022/07/24 04:11:26;;;;;;;9.85;7.60;;;19.10;99.90;;;;;;5051470;28;20754;-70
2022/07/24 04:13:52;;;;;;;9.55;7.30;;;19.10;99.90;;;;;;5051381;28;20177;-69
2022/07/24 04:16:17;;;;;;;9.90;7.57;;;19.00;99.90;;;;;;5051194;28;20181;-70
2022/07/24 04:18:43;;;;;;;9.60;7.07;;;19.10;99.90;;;;;;5051367;28;20231;-70
2022/07/24 04:21:08;;;;;;;8.70;7.15;;;19.10;99.90;;;;;;5051386;28;20188;-70
2022/07/24 04:23:34;;;;;;;9.45;7.45;;;19.10;99.90;;;;;;5051681;28;20660;-70
2022/07/24 04:26:00;;;;;;;10.93;8.63;;;19.10;99.90;;;;;;5051530;28;20173;-70
2022/07/24 04:28:26;;;;;;;13.13;8.50;;;19.20;99.90;;;;;;5051404;28;20197;-69
2022/07/24 04:30:52;;;;;;;10.32;7.20;;;19.30;99.90;;;;;;5051435;28;20259;-70
2022/07/24 04:33:17;;;;;;;8.63;7.15;;;19.30;99.90;;;;;;5051274;28;20268;-70
2022/07/24 04:35:43;;;;;;;9.90;7.18;;;19.30;99.90;;;;;;5051497;28;20217;-69
2022/07/24 04:38:08;;;;;;;9.00;7.15;;;19.40;99.90;;;;;;5051318;28;20231;-70
2022/07/24 04:40:34;;;;;;;9.73;7.05;;;19.40;99.90;;;;;;5051452;28;20307;-70
2022/07/24 04:42:59;;;;;;;7.40;6.50;;;19.50;99.90;;;;;;5051264;28;20268;-70
2022/07/24 04:45:25;;;;;;;7.97;6.53;;;19.70;99.90;;;;;;5051257;28;20264;-68
2022/07/24 04:47:50;;;;;;;9.23;7.00;;;19.90;99.90;;;;;;5051140;28;20208;-68
2022/07/24 04:50:16;;;;;;;10.07;6.53;;;20.10;99.90;;;;;;5050976;28;20224;-68
2022/07/24 04:52:42;;;;;;;8.88;7.07;;;20.40;99.90;;;;;;5051098;28;20726;-68
2022/07/24 04:55:08;;;;;;;7.57;6.15;;;20.70;99.90;;;;;;5054606;28;20174;-68
2022/07/24 04:57:33;;;;;;;9.65;6.70;;;21.00;99.90;;;;;;5054778;28;20204;-68
2022/07/24 04:59:59;;;;;;;8.35;6.82;;;21.40;99.90;;;;;;5054855;28;20177;-68
2022/07/24 05:02:24;;;;;;;10.13;7.78;;;21.70;99.90;;;;;;5054701;28;20188;-68
2022/07/24 05:04:50;;;;;;;11.18;6.45;;;22.00;99.90;;;;;;5054691;28;20230;-68
2022/07/24 05:07:16;;;;;;;7.45;6.15;;;22.20;99.90;;;;;;5054821;28;20185;-68
2022/07/24 05:09:41;;;;;;;7.15;6.30;;;22.50;99.90;;;;;;5054828;28;20174;-68
2022/07/24 05:12:07;;;;;;;8.07;6.28;;;22.80;99.90;;;;;;5054517;28;20225;-68
2022/07/24 05:14:32;;;;;;;10.00;6.30;;;23.10;99.90;;;;;;5054634;28;20170;-69
2022/07/24 05:16:58;;;;;;;8.48;6.30;;;23.40;99.90;;;;;;5054575;28;20178;-68
2022/07/24 05:19:23;;;;;;;7.68;6.00;;;23.80;99.90;;;;;;5054430;28;20276;-68
2022/07/24 05:21:49;;;;;;;8.05;6.38;;;24.20;99.90;;;;;;5054264;28;20228;-68
2022/07/24 05:24:14;;;;;;;8.68;6.18;;;24.60;99.90;;;;;;5054469;28;20230;-68
2022/07/24 05:26:40;;;;;;;7.57;6.80;;;25.10;99.90;;;;;;5054464;28;20246;-69
2022/07/24 05:29:06;;;;;;;8.43;6.70;;;25.50;99.90;;;;;;5054309;28;20643;-68
2022/07/24 05:31:33;;;;;;;8.98;6.68;;;25.80;99.20;;;;;;5054270;28;20221;-68
2022/07/24 05:33:58;;;;;;;9.27;6.38;;;26.20;98.50;;;;;;5054264;28;20534;-68
2022/07/24 05:36:25;;;;;;;8.10;6.53;;;26.60;97.70;;;;;;5054159;28;20181;-68
2022/07/24 05:38:50;;;;;;;6.97;6.20;;;27.00;96.60;;;;;;5054086;28;20575;-68
2022/07/24 05:41:16;;;;;;;13.05;6.75;;;27.40;95.60;;;;;;5054220;28;20255;-68
2022/07/24 05:43:42;;;;;;;9.65;6.07;;;27.70;94.80;;;;;;5054077;28;20177;-69
2022/07/24 05:46:07;;;;;;;9.20;6.15;;;28.10;93.90;;;;;;5053858;28;20239;-68
2022/07/24 05:48:33;;;;;;;7.13;6.28;;;28.50;92.90;;;;;;5052629;28;20174;-68
2022/07/24 05:50:59;;;;;;;7.43;6.15;;;28.70;92.10;;;;;;5053774;28;20247;-69
2022/07/24 05:53:25;;;;;;;8.82;6.75;;;28.90;91.20;;;;;;5053589;28;20277;-68
2022/07/24 05:55:51;;;;;;;8.77;6.28;;;29.10;90.60;;;;;;5053609;28;20256;-69
2022/07/24 05:58:17;;;;;;;8.23;6.43;;;29.20;89.90;;;;;;5052240;28;20629;-69
2022/07/24 06:00:43;;;;;;;7.22;6.22;;;29.50;87.10;;;;;;5053694;28;20190;-68
2022/07/24 06:03:09;;;;;;;7.20;5.97;;;29.90;86.10;;;;;;5053552;28;20186;-68
2022/07/24 06:05:34;;;;;;;6.55;5.85;;;30.30;84.30;;;;;;5053637;28;20260;-69
2022/07/24 06:08:00;;;;;;;7.40;5.60;;;30.50;80.30;;;;;;5053490;28;20177;-69
2022/07/24 06:10:26;;;;;;;8.93;6.13;;;30.20;79.70;;;;;;5053326;28;20204;-69
2022/07/24 06:12:51;;;;;;;6.28;5.35;;;30.20;78.20;;;;;;5053378;28;20173;-69
2022/07/24 06:15:17;;;;;;;5.90;5.30;;;30.20;78.00;;;;;;5053576;28;20216;-69
2022/07/24 06:17:42;;;;;;;8.35;5.45;;;30.30;77.10;;;;;;5053619;28;20177;-69
2022/07/24 06:20:12;;;;;;;5.68;5.18;;;30.30;75.40;;;;;;5053168;28;20519;-69
2022/07/24 06:22:38;;;;;;;6.90;5.25;;;30.50;76.80;;;;;;5053307;28;20679;-69
2022/07/24 06:25:04;;;;;;;6.55;5.50;;;30.80;74.90;;;;;;5053257;28;20178;-69
2022/07/24 06:27:29;;;;;;;6.18;5.18;;;31.20;73.80;;;;;;5053360;28;20188;-69
2022/07/24 06:29:55;;;;;;;6.20;5.22;;;31.50;71.40;;;;;;5053321;28;20173;-69
2022/07/24 06:32:21;;;;;;;9.35;5.82;;;31.90;70.80;;;;;;5053094;28;20182;-70
2022/07/24 06:34:46;;;;;;;6.38;5.72;;;32.20;68.80;;;;;;5053321;28;20173;-70
2022/07/24 06:37:12;;;;;;;7.57;5.60;;;32.70;68.20;;;;;;5053136;28;20235;-71
2022/07/24 06:39:37;;;;;;;6.85;5.78;;;32.90;65.30;;;;;;5053219;28;20181;-70
2022/07/24 06:42:03;;;;;;;8.02;5.47;;;32.90;63.70;;;;;;5052969;28;20177;-70
2022/07/24 06:44:29;;;;;;;7.20;5.22;;;32.90;63.60;;;;;;5052784;28;20245;-70
2022/07/24 06:46:54;;;;;;;6.05;5.25;;;32.90;63.70;;;;;;5052944;28;20196;-70
2022/07/24 06:49:20;;;;;;;6.78;5.40;;;33.10;63.10;;;;;;5052814;28;20619;-71
2022/07/24 06:51:47;;;;;;;7.43;5.35;;;33.70;63.30;;;;;;5052775;28;20255;-71
2022/07/24 06:54:13;;;;;;;6.50;5.60;;;34.50;61.70;;;;;;5052690;28;20173;-70
2022/07/24 06:56:38;;;;;;;5.15;4.45;;;34.60;58.50;;;;;;5052697;28;20183;-70
2022/07/24 06:59:04;;;;;;;6.68;5.07;;;34.70;58.40;;;;;;5052300;28;20723;-70
2022/07/24 07:01:29;;;;;;;8.68;5.47;;;34.90;57.50;;;;;;5052486;28;20173;-70
2022/07/24 07:03:55;;;;;;;5.28;4.78;;;35.20;56.00;;;;;;5052719;28;20169;-71
2022/07/24 07:06:21;;;;;;;6.07;5.13;;;35.60;55.40;;;;;;5052543;28;20552;-70
2022/07/24 07:08:47;;;;;;;5.80;4.38;;;35.80;53.40;;;;;;5052354;28;20188;-70
2022/07/24 07:11:13;;;;;;;6.70;4.63;;;35.50;53.80;;;;;;5052480;28;20216;-70
2022/07/24 07:13:38;;;;;;;6.10;5.03;;;34.70;54.40;;;;;;5052496;28;20212;-73
2022/07/24 07:16:04;;;;;;;5.85;4.78;;;34.50;55.10;;;;;;5051885;28;20271;-72
2022/07/24 07:18:29;;;;;;;7.05;5.18;;;34.40;55.50;;;;;;5052204;28;20169;-73
2022/07/24 07:20:55;;;;;;;6.30;5.32;;;33.90;56.30;;;;;;5052262;28;20180;-69
2022/07/24 07:23:26;;;;;;;5.97;4.60;;;34.20;57.80;;;;;;5052515;28;20177;-72
2022/07/24 07:25:53;;;;;;;6.22;4.80;;;35.00;56.00;;;;;;5052349;28;20180;-72
2022/07/24 07:28:18;;;;;;;7.05;5.03;;;35.60;55.10;;;;;;5052283;28;20736;-73
2022/07/24 07:30:44;;;;;;;6.97;5.15;;;36.00;54.10;;;;;;5052117;28;20204;-73
2022/07/24 07:33:10;;;;;;;8.60;5.30;;;35.80;53.40;;;;;;5052148;28;20275;-73
2022/07/24 07:35:35;;;;;;;7.00;5.43;;;35.40;54.20;;;;;;5052189;28;20256;-72
2022/07/24 07:38:01;;;;;;;6.38;5.45;;;35.40;54.00;;;;;;5052045;28;20181;-71
2022/07/24 07:40:26;;;;;;;5.63;5.03;;;35.00;53.90;;;;;;5051899;28;20181;-73
2022/07/24 07:42:52;;;;;;;6.13;5.53;;;34.20;55.10;;;;;;5051820;28;20623;-73
2022/07/24 07:45:17;;;;;;;6.07;5.18;;;33.50;57.10;;;;;;5050886;28;20185;-73
2022/07/24 07:47:43;;;;;;;6.20;4.88;;;33.40;57.40;;;;;;5052043;28;20176;-73
2022/07/24 07:50:10;;;;;;;5.30;4.80;;;33.60;58.00;;;;;;5051832;28;20181;-73
2022/07/24 07:52:36;;;;;;;7.15;5.30;;;33.30;56.80;;;;;;5051819;28;20181;-73
2022/07/24 07:55:02;;;;;;;6.47;5.35;;;33.50;57.00;;;;;;5051750;28;20589;-73
2022/07/24 07:57:28;;;;;;;6.43;5.15;;;33.50;57.30;;;;;;5051543;28;20183;-73
2022/07/24 07:59:53;;;;;;;6.80;5.40;;;33.70;57.00;;;;;;5051659;28;20181;-73
2022/07/24 08:02:19;;;;;;;8.70;5.45;;;34.20;55.60;;;;;;5051609;28;20654;-73
2022/07/24 08:04:44;;;;;;;6.38;5.00;;;34.60;55.60;;;;;;5051701;28;20172;-73
2022/07/24 08:07:10;;;;;;;7.20;5.15;;;34.60;54.30;;;;;;5050247;28;20599;-75
2022/07/24 08:09:37;;;;;;;5.95;5.35;;;34.50;55.30;;;;;;5051487;28;20206;-74
2022/07/24 08:12:03;;;;;;;7.05;5.10;;;34.60;55.80;;;;;;5051684;28;20603;-74
2022/07/24 08:14:29;;;;;;;7.22;4.65;;;35.30;55.00;;;;;;5051539;28;20189;-75
2022/07/24 08:16:55;;;;;;;6.95;4.93;;;36.00;53.70;;;;;;5051628;28;20231;-74
2022/07/24 08:19:20;;;;;;;6.05;4.88;;;36.40;53.00;;;;;;5051633;28;20259;-74
2022/07/24 08:21:46;;;;;;;5.38;4.88;;;36.80;52.00;;;;;;5051488;28;20221;-74
2022/07/24 08:24:12;;;;;;;6.60;4.85;;;36.70;51.50;;;;;;5051540;28;20172;-75
2022/07/24 08:26:38;;;;;;;6.82;4.88;;;36.50;52.00;;;;;;5051637;28;20653;-74
2022/07/24 08:29:04;;;;;;;5.57;4.85;;;36.50;50.80;;;;;;5052362;28;20176;-73
2022/07/24 08:31:29;;;;;;;5.60;5.10;;;36.50;50.90;;;;;;5055522;28;20212;-74
2022/07/24 08:33:55;;;;;;;6.95;5.45;;;36.40;50.60;;;;;;5055632;28;20318;-74
2022/07/24 08:36:21;;;;;;;5.93;5.22;;;36.30;50.80;;;;;;5055457;28;20537;-74
2022/07/24 08:38:47;;;;;;;6.43;4.53;;;36.30;51.50;;;;;;5054402;28;20177;-74
2022/07/24 08:41:13;;;;;;;5.88;4.90;;;36.30;50.30;;;;;;5055824;28;20189;-74
2022/07/24 08:43:39;;;;;;;4.85;4.35;;;36.30;49.90;;;;;;5055579;28;20624;-74
2022/07/24 08:46:08;;;;;;;6.72;4.60;;;36.30;50.90;;;;;;5055435;28;20188;-74
2022/07/24 08:48:34;;;;;;;5.40;4.90;;;35.90;50.70;;;;;;5055487;28;20173;-73
2022/07/24 08:51:01;;;;;;;5.75;5.25;;;35.90;50.90;;;;;;5055271;28;20728;-74
2022/07/24 08:53:27;;;;;;;7.28;5.30;;;35.70;51.10;;;;;;5055404;28;20193;-74
2022/07/24 08:55:53;;;;;;;5.68;5.10;;;35.50;49.80;;;;;;5055447;28;20222;-74
2022/07/24 08:58:18;;;;;;;5.22;4.72;;;35.20;51.90;;;;;;5055430;28;20693;-73
2022/07/24 09:00:44;;;;;;;6.22;5.15;;;35.10;52.00;;;;;;5055239;28;20173;-74
2022/07/24 09:03:12;;;;;;;6.43;5.28;;;34.90;52.80;;;;;;5053774;28;20185;-73
2022/07/24 09:05:54;;;;;;;6.22;4.63;;;34.80;52.20;;;;;;5055214;28;20177;-74
2022/07/24 09:08:20;;;;;;;5.40;4.90;;;35.00;52.20;;;;;;5055041;28;20196;-74
2022/07/24 09:11:00;;;;;;;5.95;4.70;;;34.90;52.20;;;;;;5055001;28;20637;-75
2022/07/24 09:13:29;;;;;;;5.85;4.82;;;35.00;52.30;;;;;;5054978;28;20181;-74
2022/07/24 09:15:55;;;;;;;7.10;4.88;;;35.40;52.80;;;;;;5054866;28;20191;-74
2022/07/24 09:18:33;;;;;;;6.32;5.10;;;35.80;51.70;;;;;;5054844;28;20173;-74
2022/07/24 09:21:10;;;;;;;5.88;4.70;;;36.10;51.50;;;;;;5054772;28;20185;-74
2022/07/24 09:23:40;;;;;;;6.90;4.82;;;36.40;49.10;;;;;;5053502;28;20529;-74
2022/07/24 09:26:05;;;;;;;6.45;5.03;;;36.50;49.90;;;;;;5053358;28;20180;-73
2022/07/24 09:28:50;;;;;;;5.32;4.80;;;36.00;48.30;;;;;;5053474;28;20651;-74
2022/07/24 09:31:15;;;;;;;6.43;5.65;;;35.40;49.80;;;;;;5053259;28;20798;-74
2022/07/24 09:33:41;;;;;;;5.93;5.32;;;35.50;51.10;;;;;;5053457;28;20255;-74
2022/07/24 09:36:14;;;;;;;5.40;4.90;;;36.00;50.60;;;;;;5052158;28;20187;-74
2022/07/24 09:38:49;;;;;;;5.38;4.88;;;36.40;49.50;;;;;;5052026;28;20180;-75
2022/07/24 09:41:21;;;;;;;6.30;4.80;;;36.60;48.70;;;;;;5053358;28;20286;-74
2022/07/24 09:43:59;;;;;;;5.25;4.45;;;36.90;48.40;;;;;;5053388;28;20264;-74
2022/07/24 09:46:26;;;;;;;5.70;4.95;;;37.10;48.30;;;;;;5053234;28;20263;-75
2022/07/24 09:48:58;;;;;;;6.22;4.57;;;37.00;47.80;;;;;;5053137;28;20177;-74
2022/07/24 09:51:25;;;;;;;5.78;4.75;;;37.20;46.80;;;;;;5051784;28;20219;-73
2022/07/24 09:53:58;;;;;;;5.43;4.90;;;36.80;46.80;;;;;;5033081;28;20644;-74
2022/07/24 09:56:25;;;;;;;6.00;4.55;;;36.40;46.90;;;;;;5033190;28;20211;-73
2022/07/24 09:58:54;;;;;;;8.18;5.30;;;36.40;48.10;;;;;;5036395;28;20161;-73
2022/07/24 10:01:26;;;;;;;6.43;4.85;;;36.50;47.30;;;;;;5052012;28;20500;-74
2022/07/24 10:03:53;;;;;;;5.25;4.53;;;36.60;46.90;;;;;;5053109;28;20173;-75
2022/07/24 10:06:21;;;;;;;6.18;4.50;;;36.50;48.40;;;;;;5053150;28;20177;-74
2022/07/24 10:08:50;;;;;;;5.75;5.00;;;36.60;48.50;;;;;;5052908;28;20181;-74
2022/07/24 10:11:16;;;;;;;7.90;4.65;;;36.90;48.80;;;;;;5052683;28;20659;-74
2022/07/24 10:13:43;;;;;;;6.40;4.55;;;37.00;47.50;;;;;;5052964;28;20189;-74
2022/07/24 10:16:11;;;;;;;5.25;4.70;;;37.30;47.40;;;;;;5052617;28;20197;-74
2022/07/24 10:18:59;;;;;;;5.15;4.65;;;37.30;46.40;;;;;;5053031;28;20180;-74
2022/07/24 10:21:33;;;;;;;5.50;4.90;;;37.30;45.50;;;;;;5017024;28;1030948;-73
2022/07/24 10:24:11;;;;;;;5.45;4.40;;;37.40;46.30;;;;;;5053649;28;20203;-74
2022/07/24 10:26:37;;;;;;;7.28;4.82;;;37.40;45.40;;;;;;5053441;28;20303;-73
2022/07/24 10:29:17;;;;;;;5.38;4.72;;;37.40;44.60;;;;;;5053779;28;20169;-73
2022/07/24 10:31:51;;;;;;;6.55;4.68;;;37.30;44.70;;;;;;5052120;28;20224;-74
2022/07/24 10:35:08;;;;;;;5.03;4.53;;;37.20;45.90;;;;;;5053489;28;20177;-74
2022/07/24 10:37:48;;;;;;;6.70;4.45;;;37.20;45.10;;;;;;5052003;28;20192;-74
2022/07/24 10:40:37;;;;;;;5.00;4.50;;;37.40;44.50;;;;;;5053238;28;20195;-74
2022/07/24 10:43:09;;;;;;;4.70;4.15;;;37.50;44.60;;;;;;5053264;28;20260;-73
2022/07/24 10:45:36;;;;;;;5.13;4.40;;;37.60;42.30;;;;;;5053386;28;20195;-72
2022/07/24 10:48:26;;;;;;;5.35;4.47;;;37.60;41.90;;;;;;5053319;28;20215;-73
2022/07/24 10:50:58;;;;;;;4.13;3.72;;;37.20;43.30;;;;;;5052400;28;20219;-74
2022/07/24 10:53:25;;;;;;;5.93;4.18;;;37.30;42.40;;;;;;5048412;28;20208;-75
2022/07/24 10:55:51;;;;;;;4.38;3.97;;;37.50;41.90;;;;;;5033063;28;20177;-74
2022/07/24 10:58:17;;;;;;;4.40;3.70;;;37.40;41.00;;;;;;5033334;28;20184;-72
2022/07/24 11:00:49;;;;;;;4.38;3.72;;;37.10;41.10;;;;;;5052600;28;20180;-72
2022/07/24 11:03:19;;;;;;;4.72;4.15;;;36.80;41.70;;;;;;5052804;28;20658;-72
2022/07/24 11:06:07;;;;;;;4.40;4.00;;;36.90;42.50;;;;;;5052769;28;20188;-72
2022/07/24 11:08:54;;;;;;;4.60;3.75;;;37.00;41.60;;;;;;5052846;28;20164;-72
2022/07/24 11:11:21;;;;;;;4.82;4.03;;;37.20;42.80;;;;;;5052521;28;20209;-72
2022/07/24 11:13:54;;;;;;;4.90;4.20;;;37.20;42.80;;;;;;5052628;28;20184;-72
2022/07/24 11:16:22;;;;;;;5.13;4.07;;;37.30;43.00;;;;;;5052640;28;20177;-72
2022/07/24 11:18:54;;;;;;;4.57;3.95;;;37.60;41.50;;;;;;5052519;28;20395;-71
2022/07/24 11:21:36;;;;;;;4.63;3.88;;;37.50;40.90;;;;;;5052312;28;20213;-72
2022/07/24 11:24:15;;;;;;;5.20;4.45;;;37.20;42.10;;;;;;5052625;28;20169;-72
2022/07/24 11:26:54;;;;;;;5.18;3.90;;;37.30;43.10;;;;;;5052366;28;20169;-72
2022/07/24 11:29:30;;;;;;;4.20;3.80;;;37.40;42.80;;;;;;5052311;28;20592;-71
2022/07/24 11:32:07;;;;;;;12.27;7.82;;;37.30;41.50;;;;;;5052515;28;20660;-72
2022/07/24 11:34:34;;;;;;;4.88;4.03;;;37.30;42.50;;;;;;5052323;28;20177;-71
2022/07/24 11:37:01;;;;;;;4.57;4.03;;;37.40;41.40;;;;;;5050993;28;20181;-71
2022/07/24 11:39:32;;;;;;;4.80;4.40;;;37.50;40.80;;;;;;5051988;28;20185;-72
2022/07/24 11:42:00;;;;;;;5.60;4.43;;;37.60;41.90;;;;;;5052221;28;20173;-71
2022/07/24 11:44:29;;;;;;;6.10;4.57;;;37.80;41.60;;;;;;5052036;28;20181;-72
2022/07/24 11:46:59;;;;;;;5.43;4.13;;;37.60;41.40;;;;;;5051980;28;20628;-71
2022/07/24 11:49:26;;;;;;;5.93;3.95;;;37.40;40.30;;;;;;5051979;28;20180;-71
2022/07/24 11:51:53;;;;;;;4.03;3.72;;;37.40;40.30;;;;;;5051916;28;20204;-71
2022/07/24 11:54:27;;;;;;;5.15;4.65;;;37.30;41.60;;;;;;5051956;28;20169;-71
2022/07/24 11:56:54;;;;;;;5.95;4.05;;;37.40;42.10;;;;;;5052186;28;20562;-71
2022/07/24 11:59:29;;;;;;;5.72;4.28;;;37.10;40.20;;;;;;5051978;28;20169;-71
2022/07/24 12:02:09;;;;;;;4.88;4.47;;;37.00;40.40;;;;;;5051731;28;20180;-71
2022/07/24 12:04:37;;;;;;;4.63;4.15;;;36.80;40.60;;;;;;5051842;28;20188;-72
2022/07/24 12:07:16;;;;;;;5.60;4.10;;;36.60;41.50;;;;;;5051596;28;20177;-71
2022/07/24 12:09:45;;;;;;;4.15;3.75;;;36.70;42.20;;;;;;5051732;28;20165;-71
2022/07/24 12:12:28;;;;;;;5.50;4.30;;;36.70;40.70;;;;;;5051496;28;20217;-72
2022/07/24 12:15:07;;;;;;;6.10;4.28;;;36.80;40.90;;;;;;5051778;28;20172;-71
2022/07/24 12:17:52;;;;;;;8.60;4.97;;;36.80;41.80;;;;;;5051716;28;20727;-72
2022/07/24 12:20:22;;;;;;;5.32;4.80;;;36.50;42.60;;;;;;5051689;28;20402;-71
2022/07/24 12:22:48;;;;;;;4.90;4.38;;;36.20;42.50;;;;;;5051425;28;20232;-71
2022/07/24 12:25:14;;;;;;;6.03;4.53;;;36.10;43.00;;;;;;5050320;28;20267;-70
2022/07/24 12:27:45;;;;;;;5.10;4.38;;;36.10;43.10;;;;;;5051725;28;20225;-72
2022/07/24 12:30:25;;;;;;;4.45;4.10;;;36.20;43.70;;;;;;5051300;28;20222;-71
2022/07/24 12:32:56;;;;;;;4.88;4.07;;;36.30;43.00;;;;;;5051570;28;20600;-71
2022/07/24 12:35:21;;;;;;;5.97;4.50;;;36.50;42.80;;;;;;5051561;28;20173;-71
2022/07/24 12:37:47;;;;;;;5.00;4.50;;;36.80;41.90;;;;;;5051421;28;20187;-71
2022/07/24 12:40:28;;;;;;;5.90;4.25;;;36.90;41.70;;;;;;5051532;28;20206;-71
2022/07/24 12:43:02;;;;;;;5.28;4.78;;;36.90;41.70;;;;;;5051595;28;20179;-71
2022/07/24 12:45:28;;;;;;;6.65;4.47;;;37.00;41.70;;;;;;5051406;28;20211;-71
2022/07/24 12:48:09;;;;;;;5.07;4.15;;;37.00;41.90;;;;;;5051517;28;20188;-71